createdAt,value
2022-12-16T00:01:13.958Z,34.20
2022-12-16T00:03:46.656Z,33.90
2022-12-16T00:06:13.773Z,35.23
2022-12-16T00:08:44.072Z,33.10
2022-12-16T00:11:11.354Z,32.83
2022-12-16T00:13:40.495Z,33.70
2022-12-16T00:16:13.980Z,33.43
2022-12-16T00:18:41.349Z,30.67
2022-12-16T00:21:12.603Z,31.10
2022-12-16T00:23:41.841Z,30.30
2022-12-16T00:26:10.508Z,28.27
2022-12-16T00:28:39.353Z,31.53
2022-12-16T00:31:07.101Z,28.97
2022-12-16T00:33:34.594Z,28.57
2022-12-16T00:36:02.024Z,27.40
2022-12-16T00:38:29.269Z,28.10
2022-12-16T00:40:56.463Z,27.63
2022-12-16T00:43:23.706Z,27.07
2022-12-16T00:45:51.960Z,26.80
2022-12-16T00:48:23.208Z,28.80
2022-12-16T00:50:55.139Z,28.90
2022-12-16T00:53:24.757Z,27.30
2022-12-16T00:56:01.215Z,27.03
2022-12-16T00:58:28.278Z,26.50
2022-12-16T01:00:55.372Z,25.00
2022-12-16T01:03:22.745Z,25.13
2022-12-16T01:05:50.142Z,24.97
2022-12-16T01:08:17.767Z,22.93
2022-12-16T01:10:55.636Z,22.40
2022-12-16T01:13:25.150Z,20.27
2022-12-16T01:15:52.904Z,20.60
2022-12-16T01:18:20.201Z,19.97
2022-12-16T01:20:47.298Z,17.87
2022-12-16T01:23:14.384Z,17.80
2022-12-16T01:25:41.455Z,18.10
2022-12-16T01:28:08.802Z,17.73
2022-12-16T01:30:36.245Z,16.13
2022-12-16T01:33:03.432Z,16.03
2022-12-16T01:38:20.667Z,14.17
2022-12-16T01:40:47.702Z,14.20
2022-12-16T01:43:24.293Z,13.67
2022-12-16T01:45:53.404Z,12.50
2022-12-16T01:48:34.257Z,11.80
2022-12-16T01:51:16.006Z,11.10
2022-12-16T01:53:45.013Z,11.50
2022-12-16T01:56:16.378Z,11.00
2022-12-16T01:58:45.167Z,10.53
2022-12-16T02:01:14.851Z,10.13
2022-12-16T02:03:42.457Z,9.70
2022-12-16T02:06:09.772Z,9.90
2022-12-16T02:08:36.852Z,10.23
2022-12-16T02:11:11.592Z,10.07
2022-12-16T02:13:41.387Z,9.53
2022-12-16T02:16:21.219Z,9.87
2022-12-16T02:19:18.094Z,10.53
2022-12-16T02:21:52.054Z,9.03
2022-12-16T02:24:36.834Z,10.70
2022-12-16T02:27:35.950Z,9.53
2022-12-16T02:30:29.713Z,9.93
2022-12-16T02:33:22.326Z,10.70
2022-12-16T02:36:10.879Z,11.50
2022-12-16T02:39:24.219Z,9.97
2022-12-16T02:42:46.161Z,8.83
2022-12-16T02:45:19.830Z,9.83
2022-12-16T02:47:47.528Z,9.50
2022-12-16T02:50:30.715Z,9.17
2022-12-16T02:52:59.775Z,9.73
2022-12-16T02:56:01.035Z,9.57
2022-12-16T02:59:02.025Z,8.90
2022-12-16T03:01:42.237Z,9.60
2022-12-16T03:04:41.191Z,9.57
2022-12-16T03:07:15.515Z,8.63
2022-12-16T03:09:45.723Z,9.40
2022-12-16T03:12:17.549Z,9.23
2022-12-16T03:14:49.854Z,9.67
2022-12-16T03:17:19.547Z,10.27
2022-12-16T03:19:57.469Z,10.27
2022-12-16T03:22:34.222Z,8.93
2022-12-16T03:25:01.474Z,8.53
2022-12-16T03:27:52.988Z,9.37
2022-12-16T03:30:33.444Z,9.67
2022-12-16T03:33:39.574Z,9.10
2022-12-16T03:36:22.126Z,9.17
2022-12-16T03:38:51.111Z,9.43
2022-12-16T03:41:20.829Z,10.00
2022-12-16T03:43:50.161Z,9.57
2022-12-16T03:46:18.355Z,10.13
2022-12-16T03:48:51.223Z,9.73
2022-12-16T03:51:20.004Z,8.83
2022-12-16T03:53:47.198Z,9.40
2022-12-16T03:56:14.322Z,9.27
2022-12-16T03:58:41.502Z,8.87
2022-12-16T04:01:10.140Z,9.97
2022-12-16T04:03:38.261Z,8.60
2022-12-16T04:06:06.274Z,9.10
2022-12-16T04:08:33.309Z,10.40
2022-12-16T04:11:18.966Z,9.93
2022-12-16T04:14:04.570Z,10.30
2022-12-16T04:16:50.540Z,10.75
2022-12-16T04:19:45.667Z,10.07
2022-12-16T04:23:01.880Z,10.20
2022-12-16T04:25:35.826Z,9.47
2022-12-16T04:28:03.455Z,9.33
2022-12-16T04:30:34.877Z,8.87
2022-12-16T04:33:25.393Z,8.83
2022-12-16T04:36:11.069Z,8.90
2022-12-16T04:38:57.068Z,8.85
2022-12-16T04:41:42.817Z,8.77
2022-12-16T04:44:29.149Z,9.30
2022-12-16T04:50:03.130Z,8.87
2022-12-16T04:52:48.609Z,9.73
2022-12-16T04:55:34.241Z,9.48
2022-12-16T04:58:21.423Z,9.73
2022-12-16T05:01:08.571Z,8.90
2022-12-16T05:04:01.883Z,9.87
2022-12-16T05:06:47.452Z,9.83
2022-12-16T05:09:32.713Z,9.52
2022-12-16T05:12:18.074Z,9.48
2022-12-16T05:15:03.366Z,9.10
2022-12-16T05:17:49.214Z,9.68
2022-12-16T05:20:35.317Z,10.27
2022-12-16T05:26:06.702Z,9.43
2022-12-16T05:28:52.250Z,9.20
2022-12-16T05:31:38.215Z,10.52
2022-12-16T05:34:24.041Z,10.43
2022-12-16T05:37:09.463Z,10.45
2022-12-16T05:39:55.371Z,10.73
2022-12-16T05:42:41.012Z,10.80
2022-12-16T05:45:27.119Z,9.82
2022-12-16T05:50:58.295Z,9.70
2022-12-16T05:53:44.086Z,11.77
2022-12-16T05:56:29.324Z,10.23
2022-12-16T05:59:15.002Z,10.93
2022-12-16T06:02:00.620Z,11.65
2022-12-16T06:04:46.483Z,10.48
2022-12-16T06:07:32.360Z,10.65
2022-12-16T06:10:18.059Z,10.68
2022-12-16T06:13:06.816Z,10.15
2022-12-16T06:15:52.908Z,10.43
2022-12-16T06:18:38.628Z,10.45
2022-12-16T06:21:24.176Z,10.23
2022-12-16T06:24:09.479Z,10.70
2022-12-16T06:26:55.056Z,10.70
2022-12-16T06:29:41.130Z,10.98
2022-12-16T06:32:26.958Z,10.23
2022-12-16T06:35:12.242Z,11.07
2022-12-16T06:37:58.026Z,10.75
2022-12-16T06:41:00.538Z,10.55
2022-12-16T06:43:46.403Z,12.00
2022-12-16T06:46:32.151Z,11.45
2022-12-16T06:49:18.118Z,12.20
2022-12-16T06:52:03.747Z,12.70
2022-12-16T06:54:49.330Z,12.00
2022-12-16T06:57:35.204Z,11.27
2022-12-16T07:00:21.294Z,11.02
2022-12-16T07:03:07.045Z,12.20
2022-12-16T07:05:52.626Z,12.68
2022-12-16T07:08:38.536Z,13.30
2022-12-16T07:11:24.613Z,13.80
2022-12-16T07:14:10.259Z,12.60
2022-12-16T07:16:55.776Z,13.27
2022-12-16T07:19:41.843Z,14.10
2022-12-16T07:22:27.458Z,14.02
2022-12-16T07:25:13.188Z,12.93
2022-12-16T07:27:59.080Z,14.13
2022-12-16T07:30:48.484Z,13.47
2022-12-16T07:36:20.125Z,14.33
2022-12-16T07:39:05.577Z,14.20
2022-12-16T07:41:51.397Z,14.55
2022-12-16T07:44:37.105Z,15.60
2022-12-16T07:47:22.912Z,15.82
2022-12-16T07:50:08.637Z,17.15
2022-12-16T07:52:54.357Z,15.82
2022-12-16T07:55:41.278Z,16.13
2022-12-16T07:58:28.372Z,15.40
2022-12-16T08:01:13.775Z,16.83
2022-12-16T08:03:59.653Z,15.40
2022-12-16T08:06:59.275Z,14.95
2022-12-16T08:09:45.359Z,13.77
2022-12-16T08:12:31.464Z,13.60
2022-12-16T08:15:16.931Z,14.40
2022-12-16T08:18:10.762Z,14.23
2022-12-16T08:20:56.627Z,12.33
2022-12-16T08:23:42.708Z,12.70
2022-12-16T08:26:28.272Z,12.07
2022-12-16T08:29:42.605Z,13.88
2022-12-16T08:32:20.302Z,13.90
2022-12-16T08:35:05.761Z,13.57
2022-12-16T08:37:55.104Z,12.97
2022-12-16T08:40:41.218Z,13.15
2022-12-16T08:43:26.973Z,12.23
2022-12-16T08:46:13.309Z,11.43
2022-12-16T08:48:59.351Z,11.87
2022-12-16T08:51:45.467Z,12.98
2022-12-16T08:54:31.310Z,13.65
2022-12-16T08:57:17.807Z,13.57
2022-12-16T09:00:03.752Z,14.43
2022-12-16T09:02:50.300Z,13.98
2022-12-16T09:05:36.998Z,15.23
2022-12-16T09:08:23.464Z,14.73
2022-12-16T09:11:08.844Z,16.43
2022-12-16T09:13:54.188Z,16.02
2022-12-16T09:16:40.628Z,17.35
2022-12-16T09:19:26.664Z,16.70
2022-12-16T09:22:12.280Z,16.77
2022-12-16T09:24:57.951Z,16.17
2022-12-16T09:27:43.488Z,15.88
2022-12-16T09:30:29.562Z,14.90
2022-12-16T09:33:35.607Z,15.48
2022-12-16T09:36:21.667Z,15.55
2022-12-16T09:39:07.100Z,15.73
2022-12-16T09:42:55.553Z,15.88
2022-12-16T09:45:59.378Z,17.00
2022-12-16T09:49:06.769Z,18.23
2022-12-16T09:51:54.183Z,17.40
2022-12-16T09:54:44.066Z,19.60
2022-12-16T09:57:30.066Z,19.67
2022-12-16T10:00:25.172Z,18.85
2022-12-16T10:03:11.085Z,21.30
2022-12-16T10:06:24.475Z,23.05
2022-12-16T10:09:24.398Z,22.83
2022-12-16T10:12:40.673Z,24.17
2022-12-16T10:16:10.769Z,22.93
2022-12-16T10:19:24.298Z,24.33
2022-12-16T10:22:37.639Z,26.00
2022-12-16T10:25:37.524Z,27.03
2022-12-16T10:28:43.313Z,26.47
2022-12-16T10:31:35.684Z,27.57
2022-12-16T10:34:24.189Z,29.80
2022-12-16T10:37:14.215Z,28.37
2022-12-16T10:40:08.974Z,28.67
2022-12-16T10:43:05.000Z,27.00
2022-12-16T10:46:05.555Z,28.88
2022-12-16T10:48:56.507Z,26.77
2022-12-16T10:51:46.609Z,27.00
2022-12-16T10:55:00.642Z,24.80
2022-12-16T10:58:14.463Z,22.97
2022-12-16T11:01:07.585Z,23.37
2022-12-16T11:03:57.077Z,24.67
2022-12-16T11:07:00.346Z,24.17
2022-12-16T11:09:50.568Z,24.87
2022-12-16T11:12:39.111Z,24.27
2022-12-16T11:15:51.122Z,22.57
2022-12-16T11:18:41.477Z,21.47
2022-12-16T11:21:38.663Z,20.10
2022-12-16T11:24:38.919Z,20.10
2022-12-16T11:27:45.933Z,19.63
2022-12-16T11:30:40.803Z,20.27
2022-12-16T11:33:46.609Z,20.00
2022-12-16T11:36:43.393Z,19.13
2022-12-16T11:39:40.984Z,19.50
2022-12-16T11:42:38.594Z,17.70
2022-12-16T11:45:31.363Z,19.90
2022-12-16T11:48:58.092Z,18.50
2022-12-16T11:51:56.786Z,16.43
2022-12-16T11:54:47.832Z,17.30
2022-12-16T11:57:43.405Z,17.47
2022-12-16T12:00:38.729Z,17.83
2022-12-16T12:03:29.639Z,18.20
2022-12-16T12:06:58.238Z,16.90
2022-12-16T12:09:46.245Z,16.63
2022-12-16T12:13:15.098Z,16.47
2022-12-16T12:16:16.197Z,17.63
2022-12-16T12:19:08.117Z,18.13
2022-12-16T12:22:20.856Z,19.13
2022-12-16T12:25:22.362Z,18.40
2022-12-16T12:28:53.474Z,18.87
2022-12-16T12:32:09.064Z,18.23
2022-12-16T12:35:26.347Z,17.77
2022-12-16T12:38:46.007Z,17.48
2022-12-16T12:42:18.209Z,17.93
2022-12-16T12:45:15.648Z,16.87
2022-12-16T12:48:22.092Z,17.20
2022-12-16T12:51:38.913Z,16.95
2022-12-16T12:54:54.612Z,17.67
2022-12-16T12:57:45.144Z,17.17
2022-12-16T13:00:44.500Z,18.23
2022-12-16T13:04:15.207Z,18.47
2022-12-16T13:07:01.602Z,18.47
2022-12-16T13:09:57.102Z,18.83
2022-12-16T13:12:50.721Z,18.23
2022-12-16T13:15:57.652Z,19.80
2022-12-16T13:18:47.897Z,19.57
2022-12-16T13:21:56.161Z,18.43
2022-12-16T13:24:41.904Z,18.90
2022-12-16T13:27:35.448Z,19.60
2022-12-16T13:30:44.037Z,18.87
2022-12-16T13:33:45.254Z,19.77
2022-12-16T13:36:33.435Z,19.50
2022-12-16T13:39:40.229Z,18.93
2022-12-16T13:43:07.106Z,18.93
2022-12-16T13:46:00.336Z,21.43
2022-12-16T13:48:58.350Z,20.00
2022-12-16T13:51:56.014Z,19.87
2022-12-16T13:54:53.184Z,22.57
2022-12-16T13:57:43.525Z,22.00
2022-12-16T14:00:40.151Z,22.37
2022-12-16T14:03:57.246Z,22.17
2022-12-16T14:06:46.210Z,22.45
2022-12-16T14:10:02.274Z,22.53
2022-12-16T14:13:18.983Z,23.83
2022-12-16T14:16:17.972Z,23.07
2022-12-16T14:19:40.015Z,23.93
2022-12-16T14:23:03.370Z,24.10
2022-12-16T14:25:49.989Z,23.10
2022-12-16T14:28:52.145Z,24.27
2022-12-16T14:31:54.558Z,23.73
2022-12-16T14:34:50.558Z,25.30
2022-12-16T14:37:55.628Z,25.38
2022-12-16T14:40:50.511Z,25.13
2022-12-16T14:43:41.124Z,24.93
2022-12-16T14:47:06.713Z,27.17
2022-12-16T14:49:52.429Z,27.33
2022-12-16T14:52:46.406Z,27.17
2022-12-16T14:55:51.644Z,25.43
2022-12-16T14:58:43.155Z,26.60
2022-12-16T15:01:43.442Z,26.33
2022-12-16T15:04:39.250Z,27.30
2022-12-16T15:07:31.740Z,26.67
2022-12-16T15:10:19.694Z,27.50
2022-12-16T15:13:07.651Z,28.33
2022-12-16T15:16:03.725Z,28.53
2022-12-16T15:19:01.240Z,28.85
2022-12-16T15:21:47.228Z,30.83
2022-12-16T15:24:39.706Z,29.63
2022-12-16T15:27:40.369Z,29.57
2022-12-16T15:30:58.716Z,28.67
2022-12-16T15:33:47.783Z,30.67
2022-12-16T15:36:49.594Z,30.23
2022-12-16T15:39:44.046Z,28.20
2022-12-16T15:42:49.650Z,31.07
2022-12-16T15:45:50.852Z,31.20
2022-12-16T15:48:48.189Z,30.13
2022-12-16T15:51:47.461Z,32.23
2022-12-16T15:54:43.521Z,30.80
2022-12-16T15:57:51.486Z,32.88
2022-12-16T16:00:57.584Z,31.23
2022-12-16T16:03:50.417Z,32.27
2022-12-16T16:06:44.939Z,30.20
2022-12-16T16:09:38.664Z,33.20
2022-12-16T16:12:24.456Z,31.83
2022-12-16T16:15:10.154Z,31.23
2022-12-16T16:18:03.623Z,32.65
2022-12-16T16:20:49.211Z,33.80
2022-12-16T16:23:35.137Z,31.67
2022-12-16T16:29:07.311Z,33.53
2022-12-16T16:31:53.201Z,33.80
2022-12-16T16:34:38.914Z,32.17
2022-12-16T16:37:33.454Z,34.00
2022-12-16T16:40:30.192Z,33.37
2022-12-16T16:43:15.790Z,34.17
2022-12-16T16:46:01.416Z,36.25
2022-12-16T16:48:47.860Z,33.30
2022-12-16T16:51:33.585Z,33.30
2022-12-16T16:54:19.207Z,36.55
2022-12-16T16:57:05.025Z,36.20
2022-12-16T16:59:50.495Z,34.20
2022-12-16T17:02:43.058Z,36.58
2022-12-16T17:05:30.534Z,37.77
2022-12-16T17:08:16.261Z,36.60
2022-12-16T17:11:02.314Z,38.47
2022-12-16T17:13:48.253Z,36.03
2022-12-16T17:16:33.902Z,36.47
2022-12-16T17:19:20.735Z,36.97
2022-12-16T17:22:06.614Z,35.60
2022-12-16T17:24:54.308Z,35.60
2022-12-16T17:27:44.298Z,37.50
2022-12-16T17:30:47.425Z,35.83
2022-12-16T17:33:37.511Z,35.77
2022-12-16T17:36:28.550Z,37.03
2022-12-16T17:39:17.552Z,37.30
2022-12-16T17:42:03.690Z,37.38
2022-12-16T17:47:35.836Z,35.77
2022-12-16T17:50:22.942Z,35.63
2022-12-16T17:53:13.831Z,36.87
2022-12-16T17:55:59.390Z,37.90
2022-12-16T17:58:54.350Z,38.65
2022-12-16T18:01:40.336Z,37.97
2022-12-16T18:07:12.048Z,36.63
2022-12-16T18:09:57.955Z,37.28
2022-12-16T18:12:44.065Z,37.60
2022-12-16T18:18:16.005Z,38.67
2022-12-16T18:21:02.020Z,39.00
2022-12-16T18:26:38.234Z,37.40
2022-12-16T18:29:24.333Z,37.65
2022-12-16T18:34:56.331Z,38.17
2022-12-16T18:37:42.582Z,40.20
2022-12-16T18:43:15.278Z,37.75
2022-12-16T18:46:01.873Z,38.73
2022-12-16T18:48:49.640Z,39.90
2022-12-16T18:51:35.882Z,39.57
2022-12-16T18:57:08.019Z,37.13
2022-12-16T18:59:54.079Z,40.03
2022-12-16T19:02:42.984Z,39.30
2022-12-16T19:05:29.380Z,39.37
2022-12-16T19:08:15.574Z,37.43
2022-12-16T19:11:18.243Z,37.47
2022-12-16T19:14:04.109Z,39.27
2022-12-16T19:16:50.194Z,39.20
2022-12-16T19:22:25.263Z,38.92
2022-12-16T19:25:11.877Z,37.80
2022-12-16T19:27:58.277Z,36.67
2022-12-16T19:30:46.794Z,37.47
2022-12-16T19:33:32.817Z,39.13
2022-12-16T19:36:18.708Z,39.75
2022-12-16T19:39:07.516Z,40.28
2022-12-16T19:41:53.295Z,38.70
2022-12-16T19:44:39.960Z,37.72
2022-12-16T19:47:25.683Z,40.13
2022-12-16T19:50:11.809Z,39.65
2022-12-16T19:52:58.474Z,37.90
2022-12-16T19:55:44.935Z,40.63
2022-12-16T19:58:31.035Z,38.40
2022-12-16T20:01:16.970Z,39.88
2022-12-16T20:04:03.195Z,37.88
2022-12-16T20:06:49.869Z,39.43
2022-12-16T20:09:35.620Z,38.83
2022-12-16T20:12:21.663Z,39.40
2022-12-16T20:15:07.900Z,39.45
2022-12-16T20:20:42.572Z,37.63
2022-12-16T20:23:28.643Z,38.23
2022-12-16T20:26:17.031Z,38.22
2022-12-16T20:29:03.013Z,38.57
2022-12-16T20:31:50.045Z,38.25
2022-12-16T20:34:36.179Z,36.40
2022-12-16T20:37:22.575Z,38.70
2022-12-16T20:40:08.593Z,39.43
2022-12-16T20:42:58.323Z,39.93
2022-12-16T20:45:44.296Z,39.45
2022-12-16T20:48:35.257Z,38.17
2022-12-16T20:51:26.599Z,39.17
2022-12-16T20:54:13.662Z,39.20
2022-12-16T20:57:00.001Z,39.60
2022-12-16T20:59:45.605Z,38.67
2022-12-16T21:02:33.887Z,39.10
2022-12-16T21:05:21.971Z,38.30
2022-12-16T21:08:07.776Z,37.67
2022-12-16T21:11:03.400Z,36.77
2022-12-16T21:16:36.295Z,40.33
2022-12-16T21:19:29.404Z,38.73
2022-12-16T21:22:18.809Z,40.03
2022-12-16T21:25:05.011Z,40.38
2022-12-16T21:30:37.938Z,38.60
2022-12-16T21:33:23.592Z,37.97
2022-12-16T21:36:13.287Z,41.28
2022-12-16T21:38:58.721Z,39.07
2022-12-16T21:41:44.360Z,41.28
2022-12-16T21:44:29.941Z,39.20
2022-12-16T21:47:15.536Z,38.80
2022-12-16T21:50:01.754Z,39.88
2022-12-16T21:52:47.412Z,40.23
2022-12-16T21:55:33.082Z,40.50
2022-12-16T21:58:18.691Z,40.55
2022-12-16T22:01:11.547Z,39.20
2022-12-16T22:04:02.014Z,39.67
2022-12-16T22:06:49.030Z,40.77
2022-12-16T22:09:35.585Z,37.40
2022-12-16T22:12:21.233Z,38.97
2022-12-16T22:15:06.800Z,41.03
2022-12-16T22:17:58.018Z,39.30
2022-12-16T22:20:44.270Z,38.17
2022-12-16T22:23:29.911Z,39.40
2022-12-16T22:26:20.069Z,39.60
2022-12-16T22:29:06.074Z,37.57
2022-12-16T22:31:51.594Z,38.47
2022-12-16T22:34:37.740Z,39.03
2022-12-16T22:37:23.576Z,38.90
2022-12-16T22:40:09.311Z,37.40
2022-12-16T22:42:56.297Z,39.50
2022-12-16T22:45:42.269Z,39.63
2022-12-16T22:48:31.106Z,37.65
2022-12-16T22:51:16.644Z,36.97
2022-12-16T22:54:02.470Z,36.83
2022-12-16T22:56:48.565Z,35.95
2022-12-16T22:59:34.214Z,39.40
2022-12-16T23:02:20.017Z,37.50
2022-12-16T23:05:05.922Z,36.67
2022-12-16T23:07:51.836Z,37.67
2022-12-16T23:10:37.744Z,36.78
2022-12-16T23:13:23.316Z,38.17
2022-12-16T23:16:09.118Z,36.20
2022-12-16T23:18:56.456Z,36.93
2022-12-16T23:21:42.501Z,36.27
2022-12-16T23:24:30.110Z,36.50
2022-12-16T23:27:16.046Z,37.27
2022-12-16T23:30:01.467Z,38.42
2022-12-16T23:32:47.314Z,36.67
2022-12-16T23:35:33.001Z,34.38
2022-12-16T23:38:25.506Z,36.08
2022-12-16T23:41:18.355Z,34.93
2022-12-16T23:44:04.415Z,35.33
2022-12-16T23:49:35.341Z,35.60
2022-12-16T23:52:20.935Z,35.63
2022-12-16T23:55:06.536Z,36.63
2022-12-16T23:57:52.697Z,37.35
